sensor_id;sensor_type;location;lat;lon;timestamp;P1;durP1;ratioP1;P2;durP2;ratioP2
70558;SDS011;58108;48.094;11.838;2023-08-06T00:01:58;8.65;;;4.00;;
70558;SDS011;58108;48.094;11.838;2023-08-06T00:04:24;6.23;;;3.63;;
70558;SDS011;58108;48.094;11.838;2023-08-06T00:06:49;8.03;;;3.53;;
70558;SDS011;58108;48.094;11.838;2023-08-06T00:09:14;11.27;;;4.33;;
70558;SDS011;58108;48.094;11.838;2023-08-06T00:11:39;7.23;;;3.90;;
70558;SDS011;58108;48.094;11.838;2023-08-06T00:14:06;8.38;;;4.50;;
70558;SDS011;58108;48.094;11.838;2023-08-06T00:16:31;7.70;;;4.00;;
70558;SDS011;58108;48.094;11.838;2023-08-06T00:18:56;7.57;;;4.20;;
70558;SDS011;58108;48.094;11.838;2023-08-06T00:21:21;9.37;;;4.07;;
70558;SDS011;58108;48.094;11.838;2023-08-06T00:23:47;7.10;;;3.60;;
70558;SDS011;58108;48.094;11.838;2023-08-06T00:26:12;6.20;;;3.33;;
70558;SDS011;58108;48.094;11.838;2023-08-06T00:28:37;6.63;;;3.33;;
70558;SDS011;58108;48.094;11.838;2023-08-06T00:31:02;8.83;;;4.00;;
70558;SDS011;58108;48.094;11.838;2023-08-06T00:33:27;6.53;;;3.17;;
70558;SDS011;58108;48.094;11.838;2023-08-06T00:35:52;6.27;;;3.37;;
70558;SDS011;58108;48.094;11.838;2023-08-06T00:38:18;8.00;;;3.60;;
70558;SDS011;58108;48.094;11.838;2023-08-06T00:40:43;7.43;;;3.53;;
70558;SDS011;58108;48.094;11.838;2023-08-06T00:43:08;5.67;;;3.27;;
70558;SDS011;58108;48.094;11.838;2023-08-06T00:45:34;8.27;;;3.30;;
70558;SDS011;58108;48.094;11.838;2023-08-06T00:47:59;6.47;;;3.22;;
70558;SDS011;58108;48.094;11.838;2023-08-06T00:50:25;5.07;;;2.60;;
70558;SDS011;58108;48.094;11.838;2023-08-06T00:52:51;6.45;;;2.90;;
70558;SDS011;58108;48.094;11.838;2023-08-06T00:55:16;7.50;;;3.53;;
70558;SDS011;58108;48.094;11.838;2023-08-06T00:57:41;7.70;;;3.30;;
70558;SDS011;58108;48.094;11.838;2023-08-06T01:00:07;6.77;;;3.07;;
70558;SDS011;58108;48.094;11.838;2023-08-06T01:02:32;7.13;;;3.43;;
70558;SDS011;58108;48.094;11.838;2023-08-06T01:04:57;8.00;;;3.67;;
70558;SDS011;58108;48.094;11.838;2023-08-06T01:10:10;7.20;;;3.58;;
70558;SDS011;58108;48.094;11.838;2023-08-06T01:12:45;5.97;;;3.30;;
70558;SDS011;58108;48.094;11.838;2023-08-06T01:15:20;7.00;;;3.00;;
70558;SDS011;58108;48.094;11.838;2023-08-06T01:17:46;6.10;;;3.15;;
70558;SDS011;58108;48.094;11.838;2023-08-06T01:20:12;6.10;;;3.03;;
70558;SDS011;58108;48.094;11.838;2023-08-06T01:22:37;8.13;;;2.87;;
70558;SDS011;58108;48.094;11.838;2023-08-06T01:25:02;6.77;;;3.00;;
70558;SDS011;58108;48.094;11.838;2023-08-06T01:27:44;9.30;;;3.80;;
70558;SDS011;58108;48.094;11.838;2023-08-06T01:32:36;5.30;;;2.70;;
70558;SDS011;58108;48.094;11.838;2023-08-06T01:35:03;6.07;;;2.78;;
70558;SDS011;58108;48.094;11.838;2023-08-06T01:37:28;6.40;;;3.20;;
70558;SDS011;58108;48.094;11.838;2023-08-06T01:39:54;5.85;;;3.00;;
70558;SDS011;58108;48.094;11.838;2023-08-06T01:42:19;5.87;;;2.83;;
70558;SDS011;58108;48.094;11.838;2023-08-06T01:44:44;6.53;;;3.20;;
70558;SDS011;58108;48.094;11.838;2023-08-06T01:47:10;6.87;;;3.20;;
70558;SDS011;58108;48.094;11.838;2023-08-06T01:49:35;8.10;;;3.10;;
70558;SDS011;58108;48.094;11.838;2023-08-06T01:52:00;7.47;;;3.27;;
70558;SDS011;58108;48.094;11.838;2023-08-06T01:54:26;6.57;;;3.13;;
70558;SDS011;58108;48.094;11.838;2023-08-06T01:56:51;6.67;;;3.80;;
70558;SDS011;58108;48.094;11.838;2023-08-06T01:59:16;7.57;;;3.70;;
70558;SDS011;58108;48.094;11.838;2023-08-06T02:01:41;7.10;;;3.30;;
70558;SDS011;58108;48.094;11.838;2023-08-06T02:04:06;8.70;;;3.93;;
70558;SDS011;58108;48.094;11.838;2023-08-06T02:06:31;6.53;;;3.40;;
70558;SDS011;58108;48.094;11.838;2023-08-06T02:08:57;7.00;;;3.60;;
70558;SDS011;58108;48.094;11.838;2023-08-06T02:11:22;10.07;;;4.20;;
70558;SDS011;58108;48.094;11.838;2023-08-06T02:13:47;6.70;;;3.60;;
70558;SDS011;58108;48.094;11.838;2023-08-06T02:16:12;7.13;;;3.20;;
70558;SDS011;58108;48.094;11.838;2023-08-06T02:18:37;7.77;;;3.60;;
70558;SDS011;58108;48.094;11.838;2023-08-06T02:21:03;8.70;;;3.70;;
70558;SDS011;58108;48.094;11.838;2023-08-06T02:23:28;7.88;;;3.33;;
70558;SDS011;58108;48.094;11.838;2023-08-06T02:26:03;7.43;;;3.30;;
70558;SDS011;58108;48.094;11.838;2023-08-06T02:28:28;7.17;;;3.27;;
70558;SDS011;58108;48.094;11.838;2023-08-06T02:30:54;6.75;;;3.38;;
70558;SDS011;58108;48.094;11.838;2023-08-06T02:33:19;6.93;;;3.03;;
70558;SDS011;58108;48.094;11.838;2023-08-06T02:35:44;7.57;;;3.20;;
70558;SDS011;58108;48.094;11.838;2023-08-06T02:38:09;6.10;;;3.37;;
70558;SDS011;58108;48.094;11.838;2023-08-06T02:40:34;6.30;;;2.83;;
70558;SDS011;58108;48.094;11.838;2023-08-06T02:43:00;4.90;;;2.10;;
70558;SDS011;58108;48.094;11.838;2023-08-06T02:45:25;4.43;;;2.03;;
70558;SDS011;58108;48.094;11.838;2023-08-06T02:47:50;5.17;;;2.30;;
70558;SDS011;58108;48.094;11.838;2023-08-06T02:50:15;6.07;;;2.73;;
70558;SDS011;58108;48.094;11.838;2023-08-06T02:52:41;6.37;;;2.30;;
70558;SDS011;58108;48.094;11.838;2023-08-06T02:55:06;6.63;;;2.40;;
70558;SDS011;58108;48.094;11.838;2023-08-06T02:57:31;5.43;;;2.80;;
70558;SDS011;58108;48.094;11.838;2023-08-06T02:59:57;4.87;;;2.30;;
70558;SDS011;58108;48.094;11.838;2023-08-06T03:02:22;5.97;;;2.47;;
70558;SDS011;58108;48.094;11.838;2023-08-06T03:04:47;5.00;;;2.40;;
70558;SDS011;58108;48.094;11.838;2023-08-06T03:07:12;5.70;;;2.73;;
70558;SDS011;58108;48.094;11.838;2023-08-06T03:09:37;4.87;;;2.07;;
70558;SDS011;58108;48.094;11.838;2023-08-06T03:12:02;4.47;;;2.30;;
70558;SDS011;58108;48.094;11.838;2023-08-06T03:14:28;6.07;;;2.37;;
70558;SDS011;58108;48.094;11.838;2023-08-06T03:16:53;5.10;;;2.80;;
70558;SDS011;58108;48.094;11.838;2023-08-06T03:19:18;5.13;;;2.10;;
70558;SDS011;58108;48.094;11.838;2023-08-06T03:21:43;4.23;;;2.10;;
70558;SDS011;58108;48.094;11.838;2023-08-06T03:24:08;5.10;;;2.40;;
70558;SDS011;58108;48.094;11.838;2023-08-06T03:26:34;3.87;;;2.10;;
70558;SDS011;58108;48.094;11.838;2023-08-06T03:28:59;5.10;;;2.30;;
70558;SDS011;58108;48.094;11.838;2023-08-06T03:31:24;5.47;;;2.63;;
70558;SDS011;58108;48.094;11.838;2023-08-06T03:33:49;5.40;;;2.30;;
70558;SDS011;58108;48.094;11.838;2023-08-06T03:36:14;5.83;;;2.50;;
70558;SDS011;58108;48.094;11.838;2023-08-06T03:38:39;4.17;;;2.30;;
70558;SDS011;58108;48.094;11.838;2023-08-06T03:41:05;5.63;;;2.13;;
70558;SDS011;58108;48.094;11.838;2023-08-06T03:43:30;7.03;;;2.30;;
70558;SDS011;58108;48.094;11.838;2023-08-06T03:45:55;5.07;;;2.10;;
70558;SDS011;58108;48.094;11.838;2023-08-06T03:48:20;4.33;;;1.87;;
70558;SDS011;58108;48.094;11.838;2023-08-06T03:50:46;5.03;;;2.13;;
70558;SDS011;58108;48.094;11.838;2023-08-06T03:53:11;5.63;;;1.93;;
70558;SDS011;58108;48.094;11.838;2023-08-06T03:55:36;5.50;;;1.90;;
70558;SDS011;58108;48.094;11.838;2023-08-06T03:58:01;5.17;;;2.10;;
70558;SDS011;58108;48.094;11.838;2023-08-06T04:00:26;5.30;;;1.57;;
70558;SDS011;58108;48.094;11.838;2023-08-06T04:02:51;4.90;;;1.87;;
70558;SDS011;58108;48.094;11.838;2023-08-06T04:05:17;4.30;;;1.77;;
70558;SDS011;58108;48.094;11.838;2023-08-06T04:07:42;4.70;;;2.07;;
70558;SDS011;58108;48.094;11.838;2023-08-06T04:10:07;5.70;;;2.30;;
70558;SDS011;58108;48.094;11.838;2023-08-06T04:12:33;5.60;;;1.70;;
70558;SDS011;58108;48.094;11.838;2023-08-06T04:15:01;4.93;;;1.70;;
70558;SDS011;58108;48.094;11.838;2023-08-06T04:17:27;3.28;;;1.67;;
70558;SDS011;58108;48.094;11.838;2023-08-06T04:19:53;4.87;;;1.90;;
70558;SDS011;58108;48.094;11.838;2023-08-06T04:22:19;3.88;;;1.83;;
70558;SDS011;58108;48.094;11.838;2023-08-06T04:24:45;4.47;;;1.90;;
70558;SDS011;58108;48.094;11.838;2023-08-06T04:27:10;4.10;;;1.50;;
70558;SDS011;58108;48.094;11.838;2023-08-06T04:29:36;4.20;;;1.73;;
70558;SDS011;58108;48.094;11.838;2023-08-06T04:32:01;4.53;;;1.87;;
70558;SDS011;58108;48.094;11.838;2023-08-06T04:34:26;4.90;;;1.80;;
70558;SDS011;58108;48.094;11.838;2023-08-06T04:36:52;3.63;;;1.85;;
70558;SDS011;58108;48.094;11.838;2023-08-06T04:39:17;4.40;;;1.60;;
70558;SDS011;58108;48.094;11.838;2023-08-06T04:41:42;4.28;;;1.67;;
70558;SDS011;58108;48.094;11.838;2023-08-06T04:44:07;4.30;;;1.50;;
70558;SDS011;58108;48.094;11.838;2023-08-06T04:46:32;5.67;;;1.87;;
70558;SDS011;58108;48.094;11.838;2023-08-06T04:48:58;3.40;;;1.30;;
70558;SDS011;58108;48.094;11.838;2023-08-06T04:51:23;3.77;;;1.60;;
70558;SDS011;58108;48.094;11.838;2023-08-06T04:53:48;5.23;;;1.53;;
70558;SDS011;58108;48.094;11.838;2023-08-06T04:56:13;4.70;;;1.47;;
70558;SDS011;58108;48.094;11.838;2023-08-06T04:58:38;3.80;;;1.40;;
70558;SDS011;58108;48.094;11.838;2023-08-06T05:01:03;3.53;;;1.50;;
70558;SDS011;58108;48.094;11.838;2023-08-06T05:03:29;3.92;;;1.50;;
70558;SDS011;58108;48.094;11.838;2023-08-06T05:05:54;3.43;;;1.50;;
70558;SDS011;58108;48.094;11.838;2023-08-06T05:08:19;2.67;;;0.82;;
70558;SDS011;58108;48.094;11.838;2023-08-06T05:10:45;4.23;;;1.33;;
70558;SDS011;58108;48.094;11.838;2023-08-06T05:13:10;4.43;;;1.07;;
70558;SDS011;58108;48.094;11.838;2023-08-06T05:15:35;3.07;;;1.20;;
70558;SDS011;58108;48.094;11.838;2023-08-06T05:18:00;5.00;;;1.50;;
70558;SDS011;58108;48.094;11.838;2023-08-06T05:20:26;3.27;;;1.17;;
70558;SDS011;58108;48.094;11.838;2023-08-06T05:22:51;2.57;;;1.00;;
70558;SDS011;58108;48.094;11.838;2023-08-06T05:25:16;3.10;;;1.20;;
70558;SDS011;58108;48.094;11.838;2023-08-06T05:27:41;3.47;;;1.13;;
70558;SDS011;58108;48.094;11.838;2023-08-06T05:30:07;5.07;;;1.60;;
70558;SDS011;58108;48.094;11.838;2023-08-06T05:32:32;3.00;;;1.00;;
70558;SDS011;58108;48.094;11.838;2023-08-06T05:34:57;3.33;;;1.20;;
70558;SDS011;58108;48.094;11.838;2023-08-06T05:37:22;2.63;;;0.80;;
70558;SDS011;58108;48.094;11.838;2023-08-06T05:39:47;3.07;;;1.20;;
70558;SDS011;58108;48.094;11.838;2023-08-06T05:42:13;3.90;;;1.30;;
70558;SDS011;58108;48.094;11.838;2023-08-06T05:44:38;3.50;;;1.10;;
70558;SDS011;58108;48.094;11.838;2023-08-06T05:47:03;2.67;;;1.00;;
70558;SDS011;58108;48.094;11.838;2023-08-06T05:49:28;3.37;;;1.20;;
70558;SDS011;58108;48.094;11.838;2023-08-06T05:51:53;3.83;;;1.23;;
70558;SDS011;58108;48.094;11.838;2023-08-06T05:54:19;3.13;;;1.17;;
70558;SDS011;58108;48.094;11.838;2023-08-06T05:56:44;2.90;;;1.20;;
70558;SDS011;58108;48.094;11.838;2023-08-06T05:59:10;3.53;;;1.20;;
70558;SDS011;58108;48.094;11.838;2023-08-06T06:01:35;2.80;;;1.10;;
70558;SDS011;58108;48.094;11.838;2023-08-06T06:04:00;2.93;;;1.00;;
70558;SDS011;58108;48.094;11.838;2023-08-06T06:06:25;2.33;;;0.70;;
70558;SDS011;58108;48.094;11.838;2023-08-06T06:08:50;4.47;;;1.40;;
70558;SDS011;58108;48.094;11.838;2023-08-06T06:11:15;3.15;;;0.90;;
70558;SDS011;58108;48.094;11.838;2023-08-06T06:13:41;2.70;;;1.05;;
70558;SDS011;58108;48.094;11.838;2023-08-06T06:16:06;3.27;;;1.13;;
70558;SDS011;58108;48.094;11.838;2023-08-06T06:18:31;3.50;;;1.00;;
70558;SDS011;58108;48.094;11.838;2023-08-06T06:20:56;3.10;;;1.10;;
70558;SDS011;58108;48.094;11.838;2023-08-06T06:23:21;3.10;;;1.20;;
70558;SDS011;58108;48.094;11.838;2023-08-06T06:25:47;4.70;;;1.10;;
70558;SDS011;58108;48.094;11.838;2023-08-06T06:28:12;3.15;;;1.17;;
70558;SDS011;58108;48.094;11.838;2023-08-06T06:30:38;2.57;;;0.70;;
70558;SDS011;58108;48.094;11.838;2023-08-06T06:33:03;3.40;;;0.93;;
70558;SDS011;58108;48.094;11.838;2023-08-06T06:35:28;2.87;;;0.97;;
70558;SDS011;58108;48.094;11.838;2023-08-06T06:37:53;2.90;;;0.90;;
70558;SDS011;58108;48.094;11.838;2023-08-06T06:40:19;2.60;;;0.70;;
70558;SDS011;58108;48.094;11.838;2023-08-06T06:42:44;2.47;;;0.90;;
70558;SDS011;58108;48.094;11.838;2023-08-06T06:45:09;2.53;;;0.77;;
70558;SDS011;58108;48.094;11.838;2023-08-06T06:47:34;2.70;;;0.60;;
70558;SDS011;58108;48.094;11.838;2023-08-06T06:49:59;4.20;;;0.80;;
70558;SDS011;58108;48.094;11.838;2023-08-06T06:52:25;3.30;;;0.77;;
70558;SDS011;58108;48.094;11.838;2023-08-06T06:54:50;2.33;;;0.70;;
70558;SDS011;58108;48.094;11.838;2023-08-06T06:57:15;3.20;;;0.93;;
70558;SDS011;58108;48.094;11.838;2023-08-06T06:59:40;2.40;;;0.80;;
70558;SDS011;58108;48.094;11.838;2023-08-06T07:02:05;2.53;;;0.80;;
70558;SDS011;58108;48.094;11.838;2023-08-06T07:04:30;3.10;;;0.90;;
70558;SDS011;58108;48.094;11.838;2023-08-06T07:06:56;4.77;;;0.80;;
70558;SDS011;58108;48.094;11.838;2023-08-06T07:09:21;3.53;;;0.90;;
70558;SDS011;58108;48.094;11.838;2023-08-06T07:11:46;3.20;;;0.80;;
70558;SDS011;58108;48.094;11.838;2023-08-06T07:14:11;2.90;;;0.70;;
70558;SDS011;58108;48.094;11.838;2023-08-06T07:16:36;2.67;;;0.60;;
70558;SDS011;58108;48.094;11.838;2023-08-06T07:19:01;3.47;;;0.60;;
70558;SDS011;58108;48.094;11.838;2023-08-06T07:21:27;2.30;;;0.70;;
70558;SDS011;58108;48.094;11.838;2023-08-06T07:23:52;2.03;;;0.50;;
70558;SDS011;58108;48.094;11.838;2023-08-06T07:26:17;2.73;;;0.60;;
70558;SDS011;58108;48.094;11.838;2023-08-06T07:28:42;1.67;;;0.40;;
70558;SDS011;58108;48.094;11.838;2023-08-06T07:31:07;2.17;;;0.30;;
70558;SDS011;58108;48.094;11.838;2023-08-06T07:33:33;3.13;;;0.50;;
70558;SDS011;58108;48.094;11.838;2023-08-06T07:35:58;2.90;;;0.50;;
70558;SDS011;58108;48.094;11.838;2023-08-06T07:38:23;1.80;;;0.40;;
70558;SDS011;58108;48.094;11.838;2023-08-06T07:40:48;2.43;;;0.53;;
70558;SDS011;58108;48.094;11.838;2023-08-06T07:43:13;1.93;;;0.40;;
70558;SDS011;58108;48.094;11.838;2023-08-06T07:45:39;1.50;;;0.30;;
70558;SDS011;58108;48.094;11.838;2023-08-06T07:48:04;2.37;;;0.20;;
70558;SDS011;58108;48.094;11.838;2023-08-06T07:50:29;1.60;;;0.23;;
70558;SDS011;58108;48.094;11.838;2023-08-06T07:52:54;2.73;;;0.30;;
70558;SDS011;58108;48.094;11.838;2023-08-06T07:55:20;1.40;;;0.30;;
70558;SDS011;58108;48.094;11.838;2023-08-06T07:57:45;2.23;;;0.30;;
70558;SDS011;58108;48.094;11.838;2023-08-06T08:00:10;2.63;;;0.43;;
70558;SDS011;58108;48.094;11.838;2023-08-06T08:02:36;2.10;;;0.40;;
70558;SDS011;58108;48.094;11.838;2023-08-06T08:05:01;1.47;;;0.20;;
70558;SDS011;58108;48.094;11.838;2023-08-06T08:07:26;4.43;;;0.60;;
70558;SDS011;58108;48.094;11.838;2023-08-06T08:09:53;2.55;;;0.40;;
70558;SDS011;58108;48.094;11.838;2023-08-06T08:12:19;3.07;;;0.50;;
70558;SDS011;58108;48.094;11.838;2023-08-06T08:14:44;2.53;;;0.40;;
70558;SDS011;58108;48.094;11.838;2023-08-06T08:17:10;2.10;;;0.30;;
70558;SDS011;58108;48.094;11.838;2023-08-06T08:19:36;1.90;;;0.10;;
70558;SDS011;58108;48.094;11.838;2023-08-06T08:22:01;3.77;;;0.27;;
70558;SDS011;58108;48.094;11.838;2023-08-06T08:24:26;1.60;;;0.30;;
70558;SDS011;58108;48.094;11.838;2023-08-06T08:26:52;4.37;;;0.47;;
70558;SDS011;58108;48.094;11.838;2023-08-06T08:29:17;2.00;;;0.35;;
70558;SDS011;58108;48.094;11.838;2023-08-06T08:31:42;1.87;;;0.30;;
70558;SDS011;58108;48.094;11.838;2023-08-06T08:34:08;1.80;;;0.10;;
70558;SDS011;58108;48.094;11.838;2023-08-06T08:36:33;2.33;;;0.40;;
70558;SDS011;58108;48.094;11.838;2023-08-06T08:38:58;2.00;;;0.30;;
70558;SDS011;58108;48.094;11.838;2023-08-06T08:41:24;1.50;;;0.30;;
70558;SDS011;58108;48.094;11.838;2023-08-06T08:43:49;1.50;;;0.30;;
70558;SDS011;58108;48.094;11.838;2023-08-06T08:46:15;2.08;;;0.20;;
70558;SDS011;58108;48.094;11.838;2023-08-06T08:48:42;1.60;;;0.33;;
70558;SDS011;58108;48.094;11.838;2023-08-06T08:51:08;1.83;;;0.30;;
70558;SDS011;58108;48.094;11.838;2023-08-06T08:53:33;1.87;;;0.13;;
70558;SDS011;58108;48.094;11.838;2023-08-06T08:56:00;1.63;;;0.10;;
70558;SDS011;58108;48.094;11.838;2023-08-06T08:58:25;1.63;;;0.30;;
70558;SDS011;58108;48.094;11.838;2023-08-06T09:00:50;2.23;;;0.17;;
70558;SDS011;58108;48.094;11.838;2023-08-06T09:03:16;2.13;;;0.30;;
70558;SDS011;58108;48.094;11.838;2023-08-06T09:05:43;2.30;;;0.30;;
70558;SDS011;58108;48.094;11.838;2023-08-06T09:08:08;1.23;;;0.10;;
70558;SDS011;58108;48.094;11.838;2023-08-06T09:10:35;1.97;;;0.10;;
70558;SDS011;58108;48.094;11.838;2023-08-06T09:13:02;3.75;;;0.20;;
70558;SDS011;58108;48.094;11.838;2023-08-06T09:15:28;1.02;;;0.10;;
70558;SDS011;58108;48.094;11.838;2023-08-06T09:17:54;1.27;;;0.07;;
70558;SDS011;58108;48.094;11.838;2023-08-06T09:20:19;1.17;;;0.10;;
70558;SDS011;58108;48.094;11.838;2023-08-06T09:22:45;0.82;;;0.08;;
70558;SDS011;58108;48.094;11.838;2023-08-06T09:25:10;1.27;;;0.00;;
70558;SDS011;58108;48.094;11.838;2023-08-06T09:27:36;1.38;;;0.13;;
70558;SDS011;58108;48.094;11.838;2023-08-06T09:30:02;0.97;;;0.00;;
70558;SDS011;58108;48.094;11.838;2023-08-06T09:32:39;1.42;;;0.08;;
70558;SDS011;58108;48.094;11.838;2023-08-06T09:35:10;0.70;;;0.00;;
70558;SDS011;58108;48.094;11.838;2023-08-06T09:37:40;0.70;;;0.10;;
70558;SDS011;58108;48.094;11.838;2023-08-06T09:40:20;0.80;;;0.10;;
70558;SDS011;58108;48.094;11.838;2023-08-06T09:42:48;0.77;;;0.00;;
70558;SDS011;58108;48.094;11.838;2023-08-06T09:45:15;4.50;;;0.33;;
70558;SDS011;58108;48.094;11.838;2023-08-06T09:47:41;0.83;;;0.10;;
70558;SDS011;58108;48.094;11.838;2023-08-06T09:50:06;0.70;;;0.00;;
70558;SDS011;58108;48.094;11.838;2023-08-06T09:52:39;1.05;;;0.00;;
70558;SDS011;58108;48.094;11.838;2023-08-06T09:55:05;0.80;;;0.10;;
70558;SDS011;58108;48.094;11.838;2023-08-06T09:57:30;1.00;;;0.00;;
70558;SDS011;58108;48.094;11.838;2023-08-06T09:59:55;0.47;;;0.00;;
70558;SDS011;58108;48.094;11.838;2023-08-06T10:02:20;0.50;;;0.00;;
70558;SDS011;58108;48.094;11.838;2023-08-06T10:04:49;0.63;;;0.10;;
70558;SDS011;58108;48.094;11.838;2023-08-06T10:07:15;0.67;;;0.00;;
70558;SDS011;58108;48.094;11.838;2023-08-06T10:09:42;0.80;;;0.10;;
70558;SDS011;58108;48.094;11.838;2023-08-06T10:12:07;2.87;;;0.10;;
70558;SDS011;58108;48.094;11.838;2023-08-06T10:14:33;1.43;;;0.00;;
70558;SDS011;58108;48.094;11.838;2023-08-06T10:17:00;1.13;;;0.00;;
70558;SDS011;58108;48.094;11.838;2023-08-06T10:19:26;0.90;;;0.00;;
70558;SDS011;58108;48.094;11.838;2023-08-06T10:22:10;1.95;;;0.10;;
70558;SDS011;58108;48.094;11.838;2023-08-06T10:24:48;0.52;;;0.08;;
70558;SDS011;58108;48.094;11.838;2023-08-06T10:27:19;0.67;;;0.00;;
70558;SDS011;58108;48.094;11.838;2023-08-06T10:29:44;0.40;;;0.00;;
70558;SDS011;58108;48.094;11.838;2023-08-06T10:32:09;0.40;;;0.00;;
70558;SDS011;58108;48.094;11.838;2023-08-06T10:34:53;1.00;;;0.10;;
70558;SDS011;58108;48.094;11.838;2023-08-06T10:37:20;1.00;;;0.00;;
70558;SDS011;58108;48.094;11.838;2023-08-06T10:39:50;1.60;;;0.08;;
70558;SDS011;58108;48.094;11.838;2023-08-06T10:42:19;0.70;;;0.00;;
70558;SDS011;58108;48.094;11.838;2023-08-06T10:47:28;0.70;;;0.00;;
70558;SDS011;58108;48.094;11.838;2023-08-06T10:49:54;0.30;;;0.00;;
70558;SDS011;58108;48.094;11.838;2023-08-06T10:52:19;0.43;;;0.00;;
70558;SDS011;58108;48.094;11.838;2023-08-06T10:54:44;0.40;;;0.00;;
70558;SDS011;58108;48.094;11.838;2023-08-06T10:57:09;0.60;;;0.00;;
70558;SDS011;58108;48.094;11.838;2023-08-06T10:59:35;2.00;;;0.10;;
70558;SDS011;58108;48.094;11.838;2023-08-06T11:02:00;0.67;;;0.00;;
70558;SDS011;58108;48.094;11.838;2023-08-06T11:04:30;0.50;;;0.00;;
70558;SDS011;58108;48.094;11.838;2023-08-06T11:06:55;0.73;;;0.10;;
70558;SDS011;58108;48.094;11.838;2023-08-06T11:09:20;0.47;;;0.00;;
70558;SDS011;58108;48.094;11.838;2023-08-06T11:11:45;1.13;;;0.00;;
70558;SDS011;58108;48.094;11.838;2023-08-06T11:14:14;0.93;;;0.00;;
70558;SDS011;58108;48.094;11.838;2023-08-06T11:16:39;1.42;;;0.10;;
70558;SDS011;58108;48.094;11.838;2023-08-06T11:19:07;1.90;;;0.10;;
70558;SDS011;58108;48.094;11.838;2023-08-06T11:21:32;2.13;;;0.00;;
70558;SDS011;58108;48.094;11.838;2023-08-06T11:23:57;0.60;;;0.00;;
70558;SDS011;58108;48.094;11.838;2023-08-06T11:26:23;0.33;;;0.00;;
70558;SDS011;58108;48.094;11.838;2023-08-06T11:28:49;0.57;;;0.00;;
70558;SDS011;58108;48.094;11.838;2023-08-06T11:31:23;1.40;;;0.00;;
70558;SDS011;58108;48.094;11.838;2023-08-06T11:33:55;0.80;;;0.00;;
70558;SDS011;58108;48.094;11.838;2023-08-06T11:36:33;0.55;;;0.00;;
70558;SDS011;58108;48.094;11.838;2023-08-06T11:39:02;0.50;;;0.05;;
70558;SDS011;58108;48.094;11.838;2023-08-06T11:41:31;0.40;;;0.00;;
70558;SDS011;58108;48.094;11.838;2023-08-06T11:43:56;1.13;;;0.10;;
70558;SDS011;58108;48.094;11.838;2023-08-06T11:46:22;0.40;;;0.00;;
70558;SDS011;58108;48.094;11.838;2023-08-06T11:49:06;0.40;;;0.00;;
70558;SDS011;58108;48.094;11.838;2023-08-06T11:51:32;0.80;;;0.10;;
70558;SDS011;58108;48.094;11.838;2023-08-06T11:53:57;0.63;;;0.10;;
70558;SDS011;58108;48.094;11.838;2023-08-06T11:56:23;0.70;;;0.10;;
70558;SDS011;58108;48.094;11.838;2023-08-06T11:58:49;0.60;;;0.05;;
70558;SDS011;58108;48.094;11.838;2023-08-06T12:01:14;0.73;;;0.00;;
70558;SDS011;58108;48.094;11.838;2023-08-06T12:03:39;0.60;;;0.10;;
70558;SDS011;58108;48.094;11.838;2023-08-06T12:06:05;0.33;;;0.00;;
70558;SDS011;58108;48.094;11.838;2023-08-06T12:08:30;0.90;;;0.00;;
70558;SDS011;58108;48.094;11.838;2023-08-06T12:10:55;2.40;;;0.10;;
70558;SDS011;58108;48.094;11.838;2023-08-06T12:13:20;0.90;;;0.00;;
70558;SDS011;58108;48.094;11.838;2023-08-06T12:15:46;1.20;;;0.10;;
70558;SDS011;58108;48.094;11.838;2023-08-06T12:18:11;0.50;;;0.10;;
70558;SDS011;58108;48.094;11.838;2023-08-06T12:20:36;0.30;;;0.00;;
70558;SDS011;58108;48.094;11.838;2023-08-06T12:23:03;0.93;;;0.00;;
70558;SDS011;58108;48.094;11.838;2023-08-06T12:25:28;0.87;;;0.00;;
70558;SDS011;58108;48.094;11.838;2023-08-06T12:27:53;1.23;;;0.10;;
70558;SDS011;58108;48.094;11.838;2023-08-06T12:30:19;0.20;;;0.00;;
70558;SDS011;58108;48.094;11.838;2023-08-06T12:32:44;0.70;;;0.00;;
70558;SDS011;58108;48.094;11.838;2023-08-06T12:35:09;0.80;;;0.10;;
70558;SDS011;58108;48.094;11.838;2023-08-06T12:37:34;0.50;;;0.10;;
70558;SDS011;58108;48.094;11.838;2023-08-06T12:40:00;0.32;;;0.00;;
70558;SDS011;58108;48.094;11.838;2023-08-06T12:42:25;0.67;;;0.00;;
70558;SDS011;58108;48.094;11.838;2023-08-06T12:44:50;3.23;;;0.23;;
70558;SDS011;58108;48.094;11.838;2023-08-06T12:47:16;0.67;;;0.00;;
70558;SDS011;58108;48.094;11.838;2023-08-06T12:49:42;0.60;;;0.00;;
70558;SDS011;58108;48.094;11.838;2023-08-06T12:52:07;0.40;;;0.00;;
70558;SDS011;58108;48.094;11.838;2023-08-06T12:54:34;0.60;;;0.10;;
70558;SDS011;58108;48.094;11.838;2023-08-06T12:57:02;0.63;;;0.00;;
70558;SDS011;58108;48.094;11.838;2023-08-06T12:59:27;0.85;;;0.00;;
70558;SDS011;58108;48.094;11.838;2023-08-06T13:01:52;0.70;;;0.00;;
70558;SDS011;58108;48.094;11.838;2023-08-06T13:04:18;0.50;;;0.00;;
70558;SDS011;58108;48.094;11.838;2023-08-06T13:06:43;0.70;;;0.00;;
70558;SDS011;58108;48.094;11.838;2023-08-06T13:09:08;0.80;;;0.10;;
70558;SDS011;58108;48.094;11.838;2023-08-06T13:11:37;0.50;;;0.10;;
70558;SDS011;58108;48.094;11.838;2023-08-06T13:14:04;0.25;;;0.00;;
70558;SDS011;58108;48.094;11.838;2023-08-06T13:16:29;0.30;;;0.00;;
70558;SDS011;58108;48.094;11.838;2023-08-06T13:18:55;1.27;;;0.10;;
70558;SDS011;58108;48.094;11.838;2023-08-06T13:21:20;1.10;;;0.00;;
70558;SDS011;58108;48.094;11.838;2023-08-06T13:23:45;0.70;;;0.10;;
70558;SDS011;58108;48.094;11.838;2023-08-06T13:26:10;0.45;;;0.00;;
70558;SDS011;58108;48.094;11.838;2023-08-06T13:28:35;0.20;;;0.00;;
70558;SDS011;58108;48.094;11.838;2023-08-06T13:31:01;0.50;;;0.00;;
70558;SDS011;58108;48.094;11.838;2023-08-06T13:33:26;0.60;;;0.10;;
70558;SDS011;58108;48.094;11.838;2023-08-06T13:35:51;0.30;;;0.00;;
70558;SDS011;58108;48.094;11.838;2023-08-06T13:38:17;0.60;;;0.10;;
70558;SDS011;58108;48.094;11.838;2023-08-06T13:40:42;0.67;;;0.00;;
70558;SDS011;58108;48.094;11.838;2023-08-06T13:43:09;0.40;;;0.00;;
70558;SDS011;58108;48.094;11.838;2023-08-06T13:45:34;1.30;;;0.13;;
70558;SDS011;58108;48.094;11.838;2023-08-06T13:48:00;1.27;;;0.10;;
70558;SDS011;58108;48.094;11.838;2023-08-06T13:50:25;1.33;;;0.10;;
70558;SDS011;58108;48.094;11.838;2023-08-06T13:52:51;1.75;;;0.10;;
70558;SDS011;58108;48.094;11.838;2023-08-06T13:55:18;0.80;;;0.10;;
70558;SDS011;58108;48.094;11.838;2023-08-06T13:57:43;1.47;;;0.00;;
70558;SDS011;58108;48.094;11.838;2023-08-06T14:00:08;1.87;;;0.10;;
70558;SDS011;58108;48.094;11.838;2023-08-06T14:02:34;0.90;;;0.10;;
70558;SDS011;58108;48.094;11.838;2023-08-06T14:04:59;1.17;;;0.10;;
70558;SDS011;58108;48.094;11.838;2023-08-06T14:07:24;1.67;;;0.07;;
70558;SDS011;58108;48.094;11.838;2023-08-06T14:09:49;0.50;;;0.00;;
70558;SDS011;58108;48.094;11.838;2023-08-06T14:12:14;0.30;;;0.00;;
70558;SDS011;58108;48.094;11.838;2023-08-06T14:14:40;0.60;;;0.10;;
70558;SDS011;58108;48.094;11.838;2023-08-06T14:17:05;0.50;;;0.00;;
70558;SDS011;58108;48.094;11.838;2023-08-06T14:19:30;0.70;;;0.10;;
70558;SDS011;58108;48.094;11.838;2023-08-06T14:21:55;0.93;;;0.10;;
70558;SDS011;58108;48.094;11.838;2023-08-06T14:24:21;1.07;;;0.03;;
70558;SDS011;58108;48.094;11.838;2023-08-06T14:26:46;0.70;;;0.00;;
70558;SDS011;58108;48.094;11.838;2023-08-06T14:29:11;0.63;;;0.00;;
70558;SDS011;58108;48.094;11.838;2023-08-06T14:31:38;0.77;;;0.07;;
70558;SDS011;58108;48.094;11.838;2023-08-06T14:34:03;1.03;;;0.00;;